sensor_id;sensor_type;location;lat;lon;timestamp;P1;durP1;ratioP1;P2;durP2;ratioP2
4132;SDS011;2080;51.038;7.008;2023-11-18T00:01:23;105.55;;;29.77;;
4132;SDS011;2080;51.038;7.008;2023-11-18T00:03:52;112.33;;;32.20;;
4132;SDS011;2080;51.038;7.008;2023-11-18T00:06:20;117.65;;;31.85;;
4132;SDS011;2080;51.038;7.008;2023-11-18T00:08:48;103.28;;;29.95;;
4132;SDS011;2080;51.038;7.008;2023-11-18T00:11:14;115.97;;;31.65;;
4132;SDS011;2080;51.038;7.008;2023-11-18T00:13:40;122.88;;;32.80;;
4132;SDS011;2080;51.038;7.008;2023-11-18T00:16:07;114.38;;;32.58;;
4132;SDS011;2080;51.038;7.008;2023-11-18T00:18:37;104.82;;;31.60;;
4132;SDS011;2080;51.038;7.008;2023-11-18T00:21:07;121.40;;;31.52;;
4132;SDS011;2080;51.038;7.008;2023-11-18T00:23:35;111.70;;;34.78;;
4132;SDS011;2080;51.038;7.008;2023-11-18T00:26:04;110.75;;;32.00;;
4132;SDS011;2080;51.038;7.008;2023-11-18T00:28:32;103.80;;;31.47;;
4132;SDS011;2080;51.038;7.008;2023-11-18T00:30:57;99.30;;;31.00;;
4132;SDS011;2080;51.038;7.008;2023-11-18T00:33:25;117.13;;;31.42;;
4132;SDS011;2080;51.038;7.008;2023-11-18T00:35:50;116.57;;;32.53;;
4132;SDS011;2080;51.038;7.008;2023-11-18T00:38:20;99.32;;;27.75;;
4132;SDS011;2080;51.038;7.008;2023-11-18T00:40:46;88.68;;;27.85;;
4132;SDS011;2080;51.038;7.008;2023-11-18T00:43:13;94.77;;;27.47;;
4132;SDS011;2080;51.038;7.008;2023-11-18T00:45:39;84.93;;;26.43;;
4132;SDS011;2080;51.038;7.008;2023-11-18T00:48:06;73.75;;;25.00;;
4132;SDS011;2080;51.038;7.008;2023-11-18T00:50:34;88.00;;;26.08;;
4132;SDS011;2080;51.038;7.008;2023-11-18T00:52:59;91.30;;;27.75;;
4132;SDS011;2080;51.038;7.008;2023-11-18T00:55:25;72.10;;;25.97;;
4132;SDS011;2080;51.038;7.008;2023-11-18T00:57:53;84.80;;;26.55;;
4132;SDS011;2080;51.038;7.008;2023-11-18T01:00:18;94.45;;;27.38;;
4132;SDS011;2080;51.038;7.008;2023-11-18T01:02:46;83.30;;;26.25;;
4132;SDS011;2080;51.038;7.008;2023-11-18T01:05:13;92.60;;;26.73;;
4132;SDS011;2080;51.038;7.008;2023-11-18T01:07:42;79.90;;;25.58;;
4132;SDS011;2080;51.038;7.008;2023-11-18T01:10:08;70.95;;;24.00;;
4132;SDS011;2080;51.038;7.008;2023-11-18T01:12:35;93.35;;;24.38;;
4132;SDS011;2080;51.038;7.008;2023-11-18T01:15:03;83.05;;;23.55;;
4132;SDS011;2080;51.038;7.008;2023-11-18T01:17:29;79.95;;;26.85;;
4132;SDS011;2080;51.038;7.008;2023-11-18T01:19:56;68.70;;;25.60;;
4132;SDS011;2080;51.038;7.008;2023-11-18T01:22:21;88.40;;;24.45;;
4132;SDS011;2080;51.038;7.008;2023-11-18T01:24:49;72.70;;;23.00;;
4132;SDS011;2080;51.038;7.008;2023-11-18T01:27:17;63.53;;;21.63;;
4132;SDS011;2080;51.038;7.008;2023-11-18T01:29:44;64.90;;;21.63;;
4132;SDS011;2080;51.038;7.008;2023-11-18T01:32:12;68.38;;;22.67;;
4132;SDS011;2080;51.038;7.008;2023-11-18T01:34:39;69.13;;;21.50;;
4132;SDS011;2080;51.038;7.008;2023-11-18T01:37:05;65.70;;;23.15;;
4132;SDS011;2080;51.038;7.008;2023-11-18T01:39:33;67.00;;;22.77;;
4132;SDS011;2080;51.038;7.008;2023-11-18T01:41:59;63.15;;;19.15;;
4132;SDS011;2080;51.038;7.008;2023-11-18T01:44:25;60.67;;;22.40;;
4132;SDS011;2080;51.038;7.008;2023-11-18T01:46:53;69.10;;;20.97;;
4132;SDS011;2080;51.038;7.008;2023-11-18T01:49:22;65.22;;;20.75;;
4132;SDS011;2080;51.038;7.008;2023-11-18T01:51:49;69.75;;;20.35;;
4132;SDS011;2080;51.038;7.008;2023-11-18T01:54:17;65.30;;;19.23;;
4132;SDS011;2080;51.038;7.008;2023-11-18T01:56:45;77.97;;;21.92;;
4132;SDS011;2080;51.038;7.008;2023-11-18T01:59:13;56.83;;;19.30;;
4132;SDS011;2080;51.038;7.008;2023-11-18T02:01:50;55.38;;;18.17;;
4132;SDS011;2080;51.038;7.008;2023-11-18T02:04:18;58.17;;;18.77;;
4132;SDS011;2080;51.038;7.008;2023-11-18T02:06:45;54.30;;;19.27;;
4132;SDS011;2080;51.038;7.008;2023-11-18T02:09:13;52.47;;;17.52;;
4132;SDS011;2080;51.038;7.008;2023-11-18T02:11:53;50.17;;;16.23;;
4132;SDS011;2080;51.038;7.008;2023-11-18T02:14:35;49.53;;;16.60;;
4132;SDS011;2080;51.038;7.008;2023-11-18T02:17:08;50.88;;;17.42;;
4132;SDS011;2080;51.038;7.008;2023-11-18T02:19:35;52.25;;;17.65;;
4132;SDS011;2080;51.038;7.008;2023-11-18T02:22:06;46.47;;;16.42;;
4132;SDS011;2080;51.038;7.008;2023-11-18T02:24:32;51.20;;;16.55;;
4132;SDS011;2080;51.038;7.008;2023-11-18T02:27:02;55.30;;;17.88;;
4132;SDS011;2080;51.038;7.008;2023-11-18T02:29:33;51.78;;;17.80;;
4132;SDS011;2080;51.038;7.008;2023-11-18T02:32:05;48.97;;;17.70;;
4132;SDS011;2080;51.038;7.008;2023-11-18T02:34:41;44.17;;;16.52;;
4132;SDS011;2080;51.038;7.008;2023-11-18T02:37:18;47.03;;;16.35;;
4132;SDS011;2080;51.038;7.008;2023-11-18T02:39:45;49.42;;;16.30;;
4132;SDS011;2080;51.038;7.008;2023-11-18T02:42:18;53.95;;;16.17;;
4132;SDS011;2080;51.038;7.008;2023-11-18T02:44:48;48.70;;;16.50;;
4132;SDS011;2080;51.038;7.008;2023-11-18T02:47:16;47.25;;;17.60;;
4132;SDS011;2080;51.038;7.008;2023-11-18T02:49:42;50.13;;;17.07;;
4132;SDS011;2080;51.038;7.008;2023-11-18T02:52:07;48.70;;;16.20;;
4132;SDS011;2080;51.038;7.008;2023-11-18T02:54:35;47.92;;;16.33;;
4132;SDS011;2080;51.038;7.008;2023-11-18T02:57:03;43.43;;;16.40;;
4132;SDS011;2080;51.038;7.008;2023-11-18T02:59:31;60.23;;;18.90;;
4132;SDS011;2080;51.038;7.008;2023-11-18T03:01:56;48.00;;;17.10;;
4132;SDS011;2080;51.038;7.008;2023-11-18T03:04:21;60.30;;;18.63;;
4132;SDS011;2080;51.038;7.008;2023-11-18T03:06:48;58.50;;;17.63;;
4132;SDS011;2080;51.038;7.008;2023-11-18T03:09:17;45.85;;;16.75;;
4132;SDS011;2080;51.038;7.008;2023-11-18T03:11:43;49.80;;;18.00;;
4132;SDS011;2080;51.038;7.008;2023-11-18T03:14:09;54.30;;;17.83;;
4132;SDS011;2080;51.038;7.008;2023-11-18T03:16:35;50.17;;;15.83;;
4132;SDS011;2080;51.038;7.008;2023-11-18T03:19:01;52.27;;;17.60;;
4132;SDS011;2080;51.038;7.008;2023-11-18T03:21:29;50.67;;;16.88;;
4132;SDS011;2080;51.038;7.008;2023-11-18T03:23:55;55.20;;;17.77;;
4132;SDS011;2080;51.038;7.008;2023-11-18T03:26:23;55.10;;;16.63;;
4132;SDS011;2080;51.038;7.008;2023-11-18T03:28:49;57.73;;;16.90;;
4132;SDS011;2080;51.038;7.008;2023-11-18T03:31:18;54.50;;;16.65;;
4132;SDS011;2080;51.038;7.008;2023-11-18T03:33:44;47.80;;;16.08;;
4132;SDS011;2080;51.038;7.008;2023-11-18T03:36:10;51.20;;;18.02;;
4132;SDS011;2080;51.038;7.008;2023-11-18T03:38:37;60.42;;;17.15;;
4132;SDS011;2080;51.038;7.008;2023-11-18T03:41:03;52.80;;;18.87;;
4132;SDS011;2080;51.038;7.008;2023-11-18T03:43:28;62.93;;;18.97;;
4132;SDS011;2080;51.038;7.008;2023-11-18T03:45:56;61.17;;;19.10;;
4132;SDS011;2080;51.038;7.008;2023-11-18T03:48:22;49.37;;;17.13;;
4132;SDS011;2080;51.038;7.008;2023-11-18T03:50:50;62.40;;;18.35;;
4132;SDS011;2080;51.038;7.008;2023-11-18T03:53:18;57.15;;;18.20;;
4132;SDS011;2080;51.038;7.008;2023-11-18T03:55:46;52.10;;;16.53;;
4132;SDS011;2080;51.038;7.008;2023-11-18T03:58:12;53.40;;;19.73;;
4132;SDS011;2080;51.038;7.008;2023-11-18T04:00:37;56.42;;;17.98;;
4132;SDS011;2080;51.038;7.008;2023-11-18T04:03:05;58.60;;;17.90;;
4132;SDS011;2080;51.038;7.008;2023-11-18T04:05:32;46.17;;;17.50;;
4132;SDS011;2080;51.038;7.008;2023-11-18T04:07:58;65.38;;;21.65;;
4132;SDS011;2080;51.038;7.008;2023-11-18T04:10:23;56.17;;;19.13;;
4132;SDS011;2080;51.038;7.008;2023-11-18T04:12:54;63.65;;;20.42;;
4132;SDS011;2080;51.038;7.008;2023-11-18T04:15:22;57.90;;;18.80;;
4132;SDS011;2080;51.038;7.008;2023-11-18T04:17:47;56.07;;;19.80;;
4132;SDS011;2080;51.038;7.008;2023-11-18T04:20:18;53.37;;;16.53;;
4132;SDS011;2080;51.038;7.008;2023-11-18T04:22:44;64.57;;;18.23;;
4132;SDS011;2080;51.038;7.008;2023-11-18T04:25:14;64.23;;;19.20;;
4132;SDS011;2080;51.038;7.008;2023-11-18T04:27:42;56.77;;;19.27;;
4132;SDS011;2080;51.038;7.008;2023-11-18T04:30:08;54.78;;;18.52;;
4132;SDS011;2080;51.038;7.008;2023-11-18T04:32:33;52.10;;;17.70;;
4132;SDS011;2080;51.038;7.008;2023-11-18T04:34:59;54.70;;;16.88;;
4132;SDS011;2080;51.038;7.008;2023-11-18T04:37:31;63.60;;;18.83;;
4132;SDS011;2080;51.038;7.008;2023-11-18T04:39:57;66.93;;;21.25;;
4132;SDS011;2080;51.038;7.008;2023-11-18T04:42:22;67.87;;;23.23;;
4132;SDS011;2080;51.038;7.008;2023-11-18T04:44:48;72.27;;;21.27;;
4132;SDS011;2080;51.038;7.008;2023-11-18T04:47:13;69.70;;;20.73;;
4132;SDS011;2080;51.038;7.008;2023-11-18T04:49:45;77.03;;;21.20;;
4132;SDS011;2080;51.038;7.008;2023-11-18T04:52:10;58.35;;;18.95;;
4132;SDS011;2080;51.038;7.008;2023-11-18T04:54:36;60.03;;;18.83;;
4132;SDS011;2080;51.038;7.008;2023-11-18T04:57:04;67.78;;;19.23;;
4132;SDS011;2080;51.038;7.008;2023-11-18T04:59:31;62.30;;;19.52;;
4132;SDS011;2080;51.038;7.008;2023-11-18T05:01:57;63.75;;;19.38;;
4132;SDS011;2080;51.038;7.008;2023-11-18T05:04:25;61.15;;;19.80;;
4132;SDS011;2080;51.038;7.008;2023-11-18T05:06:50;60.60;;;18.48;;
4132;SDS011;2080;51.038;7.008;2023-11-18T05:09:16;63.50;;;19.35;;
4132;SDS011;2080;51.038;7.008;2023-11-18T05:11:43;68.80;;;21.63;;
4132;SDS011;2080;51.038;7.008;2023-11-18T05:14:12;68.55;;;20.70;;
4132;SDS011;2080;51.038;7.008;2023-11-18T05:16:38;59.30;;;18.55;;
4132;SDS011;2080;51.038;7.008;2023-11-18T05:19:04;59.03;;;20.25;;
4132;SDS011;2080;51.038;7.008;2023-11-18T05:21:29;70.35;;;19.83;;
4132;SDS011;2080;51.038;7.008;2023-11-18T05:23:55;64.27;;;19.93;;
4132;SDS011;2080;51.038;7.008;2023-11-18T05:26:20;60.22;;;20.63;;
4132;SDS011;2080;51.038;7.008;2023-11-18T05:28:45;73.80;;;21.03;;
4132;SDS011;2080;51.038;7.008;2023-11-18T05:31:11;69.93;;;20.17;;
4132;SDS011;2080;51.038;7.008;2023-11-18T05:33:36;71.70;;;20.03;;
4132;SDS011;2080;51.038;7.008;2023-11-18T05:36:02;64.70;;;19.60;;
4132;SDS011;2080;51.038;7.008;2023-11-18T05:38:30;54.95;;;18.27;;
4132;SDS011;2080;51.038;7.008;2023-11-18T05:41:00;56.47;;;20.17;;
4132;SDS011;2080;51.038;7.008;2023-11-18T05:43:29;61.73;;;20.13;;
4132;SDS011;2080;51.038;7.008;2023-11-18T05:46:04;66.18;;;20.00;;
4132;SDS011;2080;51.038;7.008;2023-11-18T05:48:43;60.05;;;19.60;;
4132;SDS011;2080;51.038;7.008;2023-11-18T05:51:09;59.40;;;20.23;;
4132;SDS011;2080;51.038;7.008;2023-11-18T05:53:38;65.30;;;19.85;;
4132;SDS011;2080;51.038;7.008;2023-11-18T05:56:13;60.60;;;18.00;;
4132;SDS011;2080;51.038;7.008;2023-11-18T05:58:39;56.47;;;18.58;;
4132;SDS011;2080;51.038;7.008;2023-11-18T06:01:05;55.63;;;17.87;;
4132;SDS011;2080;51.038;7.008;2023-11-18T06:03:32;64.60;;;18.52;;
4132;SDS011;2080;51.038;7.008;2023-11-18T06:05:58;51.10;;;17.00;;
4132;SDS011;2080;51.038;7.008;2023-11-18T06:08:24;57.13;;;17.47;;
4132;SDS011;2080;51.038;7.008;2023-11-18T06:10:49;54.47;;;17.00;;
4132;SDS011;2080;51.038;7.008;2023-11-18T06:13:21;57.83;;;17.73;;
4132;SDS011;2080;51.038;7.008;2023-11-18T06:15:47;51.38;;;18.30;;
4132;SDS011;2080;51.038;7.008;2023-11-18T06:18:13;53.03;;;17.50;;
4132;SDS011;2080;51.038;7.008;2023-11-18T06:20:38;52.23;;;17.47;;
4132;SDS011;2080;51.038;7.008;2023-11-18T06:23:04;57.27;;;18.37;;
4132;SDS011;2080;51.038;7.008;2023-11-18T06:25:29;55.10;;;17.67;;
4132;SDS011;2080;51.038;7.008;2023-11-18T06:27:56;56.15;;;17.58;;
4132;SDS011;2080;51.038;7.008;2023-11-18T06:30:23;54.63;;;18.63;;
4132;SDS011;2080;51.038;7.008;2023-11-18T06:32:48;51.38;;;17.77;;
4132;SDS011;2080;51.038;7.008;2023-11-18T06:35:14;53.23;;;16.83;;
4132;SDS011;2080;51.038;7.008;2023-11-18T06:37:42;47.42;;;17.50;;
4132;SDS011;2080;51.038;7.008;2023-11-18T06:40:08;52.80;;;18.03;;
4132;SDS011;2080;51.038;7.008;2023-11-18T06:42:44;51.83;;;17.90;;
4132;SDS011;2080;51.038;7.008;2023-11-18T06:45:12;48.00;;;16.27;;
4132;SDS011;2080;51.038;7.008;2023-11-18T06:47:38;50.35;;;17.13;;
4132;SDS011;2080;51.038;7.008;2023-11-18T06:50:12;42.47;;;16.42;;
4132;SDS011;2080;51.038;7.008;2023-11-18T06:52:41;48.05;;;15.88;;
4132;SDS011;2080;51.038;7.008;2023-11-18T06:55:10;49.67;;;16.70;;
4132;SDS011;2080;51.038;7.008;2023-11-18T06:57:36;56.47;;;16.83;;
4132;SDS011;2080;51.038;7.008;2023-11-18T07:00:04;53.65;;;17.15;;
4132;SDS011;2080;51.038;7.008;2023-11-18T07:02:34;43.92;;;16.30;;
4132;SDS011;2080;51.038;7.008;2023-11-18T07:05:01;49.00;;;15.57;;
4132;SDS011;2080;51.038;7.008;2023-11-18T07:07:26;44.03;;;15.20;;
4132;SDS011;2080;51.038;7.008;2023-11-18T07:09:54;49.67;;;17.10;;
4132;SDS011;2080;51.038;7.008;2023-11-18T07:12:20;39.80;;;16.45;;
4132;SDS011;2080;51.038;7.008;2023-11-18T07:14:47;43.50;;;16.53;;
4132;SDS011;2080;51.038;7.008;2023-11-18T07:17:16;50.47;;;16.65;;
4132;SDS011;2080;51.038;7.008;2023-11-18T07:19:44;38.80;;;15.45;;
4132;SDS011;2080;51.038;7.008;2023-11-18T07:22:10;44.13;;;15.15;;
4132;SDS011;2080;51.038;7.008;2023-11-18T07:24:35;44.10;;;15.10;;
4132;SDS011;2080;51.038;7.008;2023-11-18T07:27:01;46.33;;;17.20;;
4132;SDS011;2080;51.038;7.008;2023-11-18T07:29:26;39.80;;;13.20;;
4132;SDS011;2080;51.038;7.008;2023-11-18T07:31:52;43.43;;;15.17;;
4132;SDS011;2080;51.038;7.008;2023-11-18T07:34:21;55.33;;;15.30;;
4132;SDS011;2080;51.038;7.008;2023-11-18T07:36:50;42.38;;;15.80;;
4132;SDS011;2080;51.038;7.008;2023-11-18T07:39:20;41.72;;;15.30;;
4132;SDS011;2080;51.038;7.008;2023-11-18T07:41:49;52.73;;;14.83;;
4132;SDS011;2080;51.038;7.008;2023-11-18T07:44:18;37.30;;;13.95;;
4132;SDS011;2080;51.038;7.008;2023-11-18T07:46:48;43.75;;;14.75;;
4132;SDS011;2080;51.038;7.008;2023-11-18T07:49:16;45.78;;;14.35;;
4132;SDS011;2080;51.038;7.008;2023-11-18T07:51:43;40.97;;;13.90;;
4132;SDS011;2080;51.038;7.008;2023-11-18T07:54:08;36.13;;;13.50;;
4132;SDS011;2080;51.038;7.008;2023-11-18T07:56:35;39.33;;;13.80;;
4132;SDS011;2080;51.038;7.008;2023-11-18T07:59:01;42.93;;;13.03;;
4132;SDS011;2080;51.038;7.008;2023-11-18T08:01:28;38.78;;;13.63;;
4132;SDS011;2080;51.038;7.008;2023-11-18T08:03:53;36.28;;;13.25;;
4132;SDS011;2080;51.038;7.008;2023-11-18T08:06:21;36.40;;;11.90;;
4132;SDS011;2080;51.038;7.008;2023-11-18T08:08:46;35.27;;;11.87;;
4132;SDS011;2080;51.038;7.008;2023-11-18T08:11:13;39.53;;;12.27;;
4132;SDS011;2080;51.038;7.008;2023-11-18T08:13:41;35.90;;;12.25;;
4132;SDS011;2080;51.038;7.008;2023-11-18T08:16:07;37.83;;;11.88;;
4132;SDS011;2080;51.038;7.008;2023-11-18T08:18:33;38.35;;;12.38;;
4132;SDS011;2080;51.038;7.008;2023-11-18T08:21:00;36.97;;;11.63;;
4132;SDS011;2080;51.038;7.008;2023-11-18T08:23:26;36.70;;;12.60;;
4132;SDS011;2080;51.038;7.008;2023-11-18T08:25:56;32.17;;;10.88;;
4132;SDS011;2080;51.038;7.008;2023-11-18T08:28:22;30.93;;;12.50;;
4132;SDS011;2080;51.038;7.008;2023-11-18T08:30:47;32.75;;;11.60;;
4132;SDS011;2080;51.038;7.008;2023-11-18T08:33:14;36.42;;;12.73;;
4132;SDS011;2080;51.038;7.008;2023-11-18T08:35:42;30.53;;;12.57;;
4132;SDS011;2080;51.038;7.008;2023-11-18T08:38:07;31.27;;;10.90;;
4132;SDS011;2080;51.038;7.008;2023-11-18T08:40:33;28.90;;;10.70;;
4132;SDS011;2080;51.038;7.008;2023-11-18T08:43:01;27.20;;;9.65;;
4132;SDS011;2080;51.038;7.008;2023-11-18T08:45:33;32.83;;;9.60;;
4132;SDS011;2080;51.038;7.008;2023-11-18T08:48:04;29.00;;;9.45;;
4132;SDS011;2080;51.038;7.008;2023-11-18T08:50:36;31.10;;;10.88;;
4132;SDS011;2080;51.038;7.008;2023-11-18T08:53:08;32.67;;;9.63;;
4132;SDS011;2080;51.038;7.008;2023-11-18T08:55:34;35.70;;;10.32;;
4132;SDS011;2080;51.038;7.008;2023-11-18T08:58:29;34.08;;;9.35;;
4132;SDS011;2080;51.038;7.008;2023-11-18T09:00:59;33.42;;;10.07;;
4132;SDS011;2080;51.038;7.008;2023-11-18T09:03:30;23.70;;;8.82;;
4132;SDS011;2080;51.038;7.008;2023-11-18T09:06:00;33.20;;;9.18;;
4132;SDS011;2080;51.038;7.008;2023-11-18T09:08:33;27.98;;;9.57;;
4132;SDS011;2080;51.038;7.008;2023-11-18T09:11:07;27.83;;;9.30;;
4132;SDS011;2080;51.038;7.008;2023-11-18T09:13:38;32.22;;;9.27;;
4132;SDS011;2080;51.038;7.008;2023-11-18T09:16:05;27.55;;;9.07;;
4132;SDS011;2080;51.038;7.008;2023-11-18T09:18:35;29.05;;;10.63;;
4132;SDS011;2080;51.038;7.008;2023-11-18T09:21:06;27.42;;;9.15;;
4132;SDS011;2080;51.038;7.008;2023-11-18T09:23:33;25.15;;;8.50;;
4132;SDS011;2080;51.038;7.008;2023-11-18T09:26:01;24.55;;;7.72;;
4132;SDS011;2080;51.038;7.008;2023-11-18T09:28:32;23.67;;;8.73;;
4132;SDS011;2080;51.038;7.008;2023-11-18T09:31:01;29.40;;;8.80;;
4132;SDS011;2080;51.038;7.008;2023-11-18T09:33:30;27.17;;;8.43;;
4132;SDS011;2080;51.038;7.008;2023-11-18T09:36:05;26.65;;;8.02;;
4132;SDS011;2080;51.038;7.008;2023-11-18T09:38:37;32.33;;;8.40;;
4132;SDS011;2080;51.038;7.008;2023-11-18T09:41:08;30.50;;;8.70;;
4132;SDS011;2080;51.038;7.008;2023-11-18T09:43:42;27.40;;;8.82;;
4132;SDS011;2080;51.038;7.008;2023-11-18T09:46:12;26.00;;;8.50;;
4132;SDS011;2080;51.038;7.008;2023-11-18T09:48:43;21.92;;;7.38;;
4132;SDS011;2080;51.038;7.008;2023-11-18T09:51:39;22.58;;;8.32;;
4132;SDS011;2080;51.038;7.008;2023-11-18T09:54:19;27.95;;;7.95;;
4132;SDS011;2080;51.038;7.008;2023-11-18T09:59:58;26.77;;;8.38;;
4132;SDS011;2080;51.038;7.008;2023-11-18T10:02:38;25.83;;;8.55;;
4132;SDS011;2080;51.038;7.008;2023-11-18T10:05:11;29.35;;;8.00;;
4132;SDS011;2080;51.038;7.008;2023-11-18T10:07:41;22.97;;;8.03;;
4132;SDS011;2080;51.038;7.008;2023-11-18T10:10:07;30.33;;;7.90;;
4132;SDS011;2080;51.038;7.008;2023-11-18T10:12:41;21.42;;;6.65;;
4132;SDS011;2080;51.038;7.008;2023-11-18T10:15:17;27.40;;;7.97;;
4132;SDS011;2080;51.038;7.008;2023-11-18T10:17:44;24.60;;;8.30;;
4132;SDS011;2080;51.038;7.008;2023-11-18T10:23:14;24.02;;;7.40;;
4132;SDS011;2080;51.038;7.008;2023-11-18T10:25:56;23.35;;;7.88;;
4132;SDS011;2080;51.038;7.008;2023-11-18T10:28:29;22.55;;;8.02;;
4132;SDS011;2080;51.038;7.008;2023-11-18T10:33:28;21.42;;;7.05;;
4132;SDS011;2080;51.038;7.008;2023-11-18T10:35:55;20.20;;;7.53;;
4132;SDS011;2080;51.038;7.008;2023-11-18T10:38:21;23.23;;;7.15;;
4132;SDS011;2080;51.038;7.008;2023-11-18T10:40:57;20.90;;;7.20;;
4132;SDS011;2080;51.038;7.008;2023-11-18T10:43:26;24.85;;;7.20;;
4132;SDS011;2080;51.038;7.008;2023-11-18T10:46:03;30.07;;;8.50;;
4132;SDS011;2080;51.038;7.008;2023-11-18T10:48:29;22.02;;;6.28;;
4132;SDS011;2080;51.038;7.008;2023-11-18T10:50:55;23.23;;;6.55;;
4132;SDS011;2080;51.038;7.008;2023-11-18T10:53:24;22.02;;;7.43;;
4132;SDS011;2080;51.038;7.008;2023-11-18T10:55:51;21.33;;;7.30;;
4132;SDS011;2080;51.038;7.008;2023-11-18T10:58:17;21.70;;;6.32;;
4132;SDS011;2080;51.038;7.008;2023-11-18T11:00:51;23.98;;;7.40;;
4132;SDS011;2080;51.038;7.008;2023-11-18T11:03:25;19.90;;;6.30;;
4132;SDS011;2080;51.038;7.008;2023-11-18T11:05:51;21.60;;;7.05;;
4132;SDS011;2080;51.038;7.008;2023-11-18T11:08:19;21.45;;;6.15;;
4132;SDS011;2080;51.038;7.008;2023-11-18T11:10:47;21.97;;;6.70;;
4132;SDS011;2080;51.038;7.008;2023-11-18T11:13:15;19.30;;;5.60;;
4132;SDS011;2080;51.038;7.008;2023-11-18T11:15:43;22.38;;;6.55;;
4132;SDS011;2080;51.038;7.008;2023-11-18T11:18:15;21.20;;;5.90;;
4132;SDS011;2080;51.038;7.008;2023-11-18T11:20:53;17.25;;;5.55;;
4132;SDS011;2080;51.038;7.008;2023-11-18T11:23:35;18.30;;;6.20;;
4132;SDS011;2080;51.038;7.008;2023-11-18T11:26:38;27.60;;;6.95;;
4132;SDS011;2080;51.038;7.008;2023-11-18T11:29:27;21.20;;;6.47;;
4132;SDS011;2080;51.038;7.008;2023-11-18T11:32:15;21.63;;;7.10;;
4132;SDS011;2080;51.038;7.008;2023-11-18T11:34:53;18.13;;;5.45;;
4132;SDS011;2080;51.038;7.008;2023-11-18T11:37:22;28.70;;;5.97;;
4132;SDS011;2080;51.038;7.008;2023-11-18T11:39:50;20.88;;;7.32;;
4132;SDS011;2080;51.038;7.008;2023-11-18T11:42:19;27.92;;;6.97;;
4132;SDS011;2080;51.038;7.008;2023-11-18T11:44:46;23.63;;;6.63;;
4132;SDS011;2080;51.038;7.008;2023-11-18T11:47:15;21.10;;;7.20;;
4132;SDS011;2080;51.038;7.008;2023-11-18T11:49:50;23.80;;;6.68;;
4132;SDS011;2080;51.038;7.008;2023-11-18T11:52:37;22.10;;;6.70;;
4132;SDS011;2080;51.038;7.008;2023-11-18T11:57:52;25.73;;;6.00;;
4132;SDS011;2080;51.038;7.008;2023-11-18T12:00:18;20.00;;;7.25;;
4132;SDS011;2080;51.038;7.008;2023-11-18T12:02:51;21.80;;;6.10;;
4132;SDS011;2080;51.038;7.008;2023-11-18T12:05:19;23.25;;;6.13;;
4132;SDS011;2080;51.038;7.008;2023-11-18T12:07:51;21.17;;;5.35;;
4132;SDS011;2080;51.038;7.008;2023-11-18T12:10:20;23.17;;;6.43;;
4132;SDS011;2080;51.038;7.008;2023-11-18T12:12:48;20.27;;;6.05;;
4132;SDS011;2080;51.038;7.008;2023-11-18T12:15:14;28.05;;;6.40;;
4132;SDS011;2080;51.038;7.008;2023-11-18T12:23:07;18.70;;;4.38;;
4132;SDS011;2080;51.038;7.008;2023-11-18T12:25:39;22.60;;;5.80;;
4132;SDS011;2080;51.038;7.008;2023-11-18T12:28:08;25.30;;;5.43;;
4132;SDS011;2080;51.038;7.008;2023-11-18T12:30:40;20.98;;;4.65;;
4132;SDS011;2080;51.038;7.008;2023-11-18T12:33:17;20.77;;;5.25;;
4132;SDS011;2080;51.038;7.008;2023-11-18T12:46:52;19.00;;;5.30;;
4132;SDS011;2080;51.038;7.008;2023-11-18T12:49:43;25.95;;;8.65;;
4132;SDS011;2080;51.038;7.008;2023-11-18T12:52:15;21.92;;;6.05;;
4132;SDS011;2080;51.038;7.008;2023-11-18T12:54:43;22.70;;;5.95;;
4132;SDS011;2080;51.038;7.008;2023-11-18T12:57:15;18.00;;;5.00;;
4132;SDS011;2080;51.038;7.008;2023-11-18T12:59:42;20.80;;;5.80;;
4132;SDS011;2080;51.038;7.008;2023-11-18T13:02:11;23.65;;;5.15;;
4132;SDS011;2080;51.038;7.008;2023-11-18T13:04:57;24.08;;;5.85;;
4132;SDS011;2080;51.038;7.008;2023-11-18T13:07:25;23.02;;;5.47;;
4132;SDS011;2080;51.038;7.008;2023-11-18T13:09:50;17.95;;;4.72;;
4132;SDS011;2080;51.038;7.008;2023-11-18T13:12:16;18.53;;;4.80;;
4132;SDS011;2080;51.038;7.008;2023-11-18T13:14:44;23.02;;;4.40;;
4132;SDS011;2080;51.038;7.008;2023-11-18T13:17:15;19.42;;;5.40;;
4132;SDS011;2080;51.038;7.008;2023-11-18T13:19:41;32.13;;;4.72;;
4132;SDS011;2080;51.038;7.008;2023-11-18T13:22:08;20.00;;;4.95;;
4132;SDS011;2080;51.038;7.008;2023-11-18T13:24:35;20.40;;;5.00;;
4132;SDS011;2080;51.038;7.008;2023-11-18T13:27:01;15.23;;;4.30;;
4132;SDS011;2080;51.038;7.008;2023-11-18T13:29:29;23.90;;;5.13;;
4132;SDS011;2080;51.038;7.008;2023-11-18T13:31:54;25.02;;;5.30;;
4132;SDS011;2080;51.038;7.008;2023-11-18T13:34:21;19.55;;;4.78;;
4132;SDS011;2080;51.038;7.008;2023-11-18T13:36:47;26.38;;;5.70;;
4132;SDS011;2080;51.038;7.008;2023-11-18T13:39:17;24.65;;;7.30;;
4132;SDS011;2080;51.038;7.008;2023-11-18T13:41:48;22.10;;;5.30;;
4132;SDS011;2080;51.038;7.008;2023-11-18T13:47:04;22.58;;;6.53;;
4132;SDS011;2080;51.038;7.008;2023-11-18T13:49:30;21.75;;;5.75;;
4132;SDS011;2080;51.038;7.008;2023-11-18T13:51:57;40.33;;;12.75;;
4132;SDS011;2080;51.038;7.008;2023-11-18T13:54:26;24.45;;;6.78;;
4132;SDS011;2080;51.038;7.008;2023-11-18T13:56:53;34.38;;;8.68;;
4132;SDS011;2080;51.038;7.008;2023-11-18T13:59:23;20.35;;;5.05;;
4132;SDS011;2080;51.038;7.008;2023-11-18T14:01:51;35.60;;;6.00;;
4132;SDS011;2080;51.038;7.008;2023-11-18T14:04:17;24.83;;;6.00;;
4132;SDS011;2080;51.038;7.008;2023-11-18T14:06:45;29.65;;;8.50;;
4132;SDS011;2080;51.038;7.008;2023-11-18T14:09:13;21.80;;;6.35;;
4132;SDS011;2080;51.038;7.008;2023-11-18T14:11:39;25.05;;;6.55;;
4132;SDS011;2080;51.038;7.008;2023-11-18T14:14:06;19.27;;;5.05;;
4132;SDS011;2080;51.038;7.008;2023-11-18T14:16:33;19.92;;;4.60;;
4132;SDS011;2080;51.038;7.008;2023-11-18T14:19:01;25.02;;;5.78;;
4132;SDS011;2080;51.038;7.008;2023-11-18T14:21:27;14.95;;;4.40;;
4132;SDS011;2080;51.038;7.008;2023-11-18T14:23:56;22.38;;;6.18;;
4132;SDS011;2080;51.038;7.008;2023-11-18T14:26:25;14.75;;;3.85;;
4132;SDS011;2080;51.038;7.008;2023-11-18T14:28:52;23.70;;;6.63;;
4132;SDS011;2080;51.038;7.008;2023-11-18T14:31:17;30.60;;;4.53;;
4132;SDS011;2080;51.038;7.008;2023-11-18T14:33:47;37.95;;;12.10;;
4132;SDS011;2080;51.038;7.008;2023-11-18T14:36:13;67.32;;;19.13;;
4132;SDS011;2080;51.038;7.008;2023-11-18T14:38:42;32.97;;;8.13;;
4132;SDS011;2080;51.038;7.008;2023-11-18T14:41:10;90.10;;;28.40;;
4132;SDS011;2080;51.038;7.008;2023-11-18T14:43:39;47.90;;;15.40;;
4132;SDS011;2080;51.038;7.008;2023-11-18T14:46:06;23.45;;;5.72;;
4132;SDS011;2080;51.038;7.008;2023-11-18T14:48:33;20.90;;;5.93;;
4132;SDS011;2080;51.038;7.008;2023-11-18T14:50:58;29.48;;;6.72;;
4132;SDS011;2080;51.038;7.008;2023-11-18T14:53:26;42.10;;;11.75;;
4132;SDS011;2080;51.038;7.008;2023-11-18T14:55:52;39.53;;;9.20;;
4132;SDS011;2080;51.038;7.008;2023-11-18T14:58:17;40.95;;;8.48;;
4132;SDS011;2080;51.038;7.008;2023-11-18T15:00:44;29.20;;;8.83;;
4132;SDS011;2080;51.038;7.008;2023-11-18T15:03:12;31.50;;;8.77;;
4132;SDS011;2080;51.038;7.008;2023-11-18T15:05:41;41.75;;;10.18;;
4132;SDS011;2080;51.038;7.008;2023-11-18T15:08:11;35.45;;;9.10;;
4132;SDS011;2080;51.038;7.008;2023-11-18T15:10:41;36.63;;;8.45;;
4132;SDS011;2080;51.038;7.008;2023-11-18T15:13:09;46.85;;;13.82;;
4132;SDS011;2080;51.038;7.008;2023-11-18T15:15:40;29.52;;;6.40;;
4132;SDS011;2080;51.038;7.008;2023-11-18T15:18:14;34.22;;;8.05;;
4132;SDS011;2080;51.038;7.008;2023-11-18T15:20:42;24.95;;;6.90;;
4132;SDS011;2080;51.038;7.008;2023-11-18T15:23:14;21.23;;;5.38;;
4132;SDS011;2080;51.038;7.008;2023-11-18T15:25:43;28.55;;;10.45;;
4132;SDS011;2080;51.038;7.008;2023-11-18T15:28:09;22.77;;;5.50;;
4132;SDS011;2080;51.038;7.008;2023-11-18T15:30:41;19.97;;;5.37;;
4132;SDS011;2080;51.038;7.008;2023-11-18T15:33:09;20.35;;;5.03;;